Climax, Kentucky
Current Conditions -  °F | °C
As of 4:35 AM on Thursday 27 Nov 2014 (Local Time) from KI39 Reporting Station
Overcast Overcast  
Wind Chill: 27°   Ceiling: 500
Heat Index: 32°   Visibility: 2mi
Dew Point: 30°   Wind: 5mph
Humidity: 93%   Direction: 310°NW
Pressure: 30.07"   Gusts: NA
Location:  37.3528°N, 84.3261°W
Report Text: KI39 270935Z AUTO 31004KT 2SM OVC005 00/M01 A3007 RMK AO2
Loading
Personal Weather Stations






























Interactive Weather Map New forecast layout! Learn more

10-Day Weather Forecast

Advertisements
Track Severe Weather on mobile